KICL

Details ICAO KICL
Name SCHENCK FLD
Region United States
Timezone America/Chicago (UTC-6.0)
Plans Departing 0
Arriving 1
Stats Elevation 994 ft / 303 m (AMSL)
Location 40.721991° -95.026184°
Runways 2
Magnetic Variation 1.909° E
Sunrise 2017-12-13 13:37:13 UTC / 2017-12-13 07:37:13 Local
Sunset 2017-12-13 22:54:28 UTC / 2017-12-13 16:54:28 Local
Advertisement - Login to hide

Runways

ID Width Length Bearing (true) Bearing (mag) Surface Threshold Offset Overrun Length
02 75 ft / 23 m 5,004 ft / 1,525 m 24.28° 22.37° Concrete 0 ft / 0 m 0 ft / 0 m
13 255 ft / 78 m 2,426 ft / 739 m 141.50° 139.59° Grass 0 ft / 0 m 0 ft / 0 m
20 75 ft / 23 m 5,004 ft / 1,525 m 204.29° 202.38° Concrete 0 ft / 0 m 0 ft / 0 m
31 255 ft / 78 m 2,426 ft / 739 m 321.50° 319.59° Grass 0 ft / 0 m 0 ft / 0 m

Map

Weather


0- 5 10 15 20 25 30 35+ Temperature / ° C

Clouds and Precipitation
Forecast for 2017-12-14 00:00 UTC. Updated 2 hours ago

Ground ~20,000 ft ~40,000 ft Winds

METAR

KICL 140035Z AUTO 35018KT 10SM OVC040 05/M02 A2989 RMK AO2

TAF

Not found

Frequencies

Recorded 132.02 MHz AWOS 3
Unicom 122.80 MHz CTAF/UNICOM
Warning: Do not use this data for real-world aviation or navigation. No guarantee of current accuracy is given.